sensor_id;sensor_type;location;lat;lon;timestamp;P1;durP1;ratioP1;P2;durP2;ratioP2
63320;SDS011;49449;48.800;9.534;2023-02-07T00:00:53;8.25;;;6.70;;
63320;SDS011;49449;48.800;9.534;2023-02-07T00:03:21;8.43;;;6.07;;
63320;SDS011;49449;48.800;9.534;2023-02-07T00:05:48;8.82;;;6.93;;
63320;SDS011;49449;48.800;9.534;2023-02-07T00:08:16;9.30;;;6.68;;
63320;SDS011;49449;48.800;9.534;2023-02-07T00:10:44;10.13;;;7.18;;
63320;SDS011;49449;48.800;9.534;2023-02-07T00:13:12;8.13;;;6.50;;
63320;SDS011;49449;48.800;9.534;2023-02-07T00:15:41;9.52;;;7.90;;
63320;SDS011;49449;48.800;9.534;2023-02-07T00:18:09;7.18;;;6.18;;
63320;SDS011;49449;48.800;9.534;2023-02-07T00:20:36;10.52;;;7.10;;
63320;SDS011;49449;48.800;9.534;2023-02-07T00:23:04;9.40;;;7.15;;
63320;SDS011;49449;48.800;9.534;2023-02-07T00:25:32;8.82;;;7.05;;
63320;SDS011;49449;48.800;9.534;2023-02-07T00:28:00;9.77;;;7.53;;
63320;SDS011;49449;48.800;9.534;2023-02-07T00:30:28;9.65;;;7.38;;
63320;SDS011;49449;48.800;9.534;2023-02-07T00:32:57;12.98;;;7.93;;
63320;SDS011;49449;48.800;9.534;2023-02-07T00:35:25;9.30;;;6.78;;
63320;SDS011;49449;48.800;9.534;2023-02-07T00:37:52;11.60;;;7.90;;
63320;SDS011;49449;48.800;9.534;2023-02-07T00:40:20;10.98;;;7.80;;
63320;SDS011;49449;48.800;9.534;2023-02-07T00:42:49;10.23;;;8.32;;
63320;SDS011;49449;48.800;9.534;2023-02-07T00:45:16;11.68;;;7.57;;
63320;SDS011;49449;48.800;9.534;2023-02-07T00:47:47;10.98;;;7.68;;
63320;SDS011;49449;48.800;9.534;2023-02-07T00:50:16;11.27;;;7.32;;
63320;SDS011;49449;48.800;9.534;2023-02-07T00:52:44;10.50;;;8.18;;
63320;SDS011;49449;48.800;9.534;2023-02-07T00:55:11;10.20;;;7.82;;
63320;SDS011;49449;48.800;9.534;2023-02-07T00:57:39;10.70;;;8.23;;
63320;SDS011;49449;48.800;9.534;2023-02-07T01:00:07;10.63;;;7.78;;
63320;SDS011;49449;48.800;9.534;2023-02-07T01:02:36;11.20;;;8.15;;
63320;SDS011;49449;48.800;9.534;2023-02-07T01:05:04;11.00;;;8.25;;
63320;SDS011;49449;48.800;9.534;2023-02-07T01:07:34;10.63;;;8.75;;
63320;SDS011;49449;48.800;9.534;2023-02-07T01:10:02;11.32;;;8.77;;
63320;SDS011;49449;48.800;9.534;2023-02-07T01:12:30;12.20;;;8.43;;
63320;SDS011;49449;48.800;9.534;2023-02-07T01:14:58;11.95;;;8.23;;
63320;SDS011;49449;48.800;9.534;2023-02-07T01:17:26;10.82;;;7.82;;
63320;SDS011;49449;48.800;9.534;2023-02-07T01:19:55;11.27;;;8.77;;
63320;SDS011;49449;48.800;9.534;2023-02-07T01:22:23;14.15;;;9.43;;
63320;SDS011;49449;48.800;9.534;2023-02-07T01:24:52;13.55;;;9.48;;
63320;SDS011;49449;48.800;9.534;2023-02-07T01:27:21;12.77;;;9.55;;
63320;SDS011;49449;48.800;9.534;2023-02-07T01:29:49;12.40;;;9.77;;
63320;SDS011;49449;48.800;9.534;2023-02-07T01:32:17;12.98;;;9.18;;
63320;SDS011;49449;48.800;9.534;2023-02-07T01:34:45;13.88;;;9.15;;
63320;SDS011;49449;48.800;9.534;2023-02-07T01:37:13;12.60;;;8.98;;
63320;SDS011;49449;48.800;9.534;2023-02-07T01:39:41;12.20;;;9.52;;
63320;SDS011;49449;48.800;9.534;2023-02-07T01:42:10;12.30;;;9.10;;
63320;SDS011;49449;48.800;9.534;2023-02-07T01:47:43;13.30;;;9.15;;
63320;SDS011;49449;48.800;9.534;2023-02-07T01:50:12;11.60;;;8.45;;
63320;SDS011;49449;48.800;9.534;2023-02-07T01:52:40;12.48;;;10.00;;
63320;SDS011;49449;48.800;9.534;2023-02-07T01:55:09;11.15;;;9.15;;
63320;SDS011;49449;48.800;9.534;2023-02-07T01:57:43;11.98;;;9.63;;
63320;SDS011;49449;48.800;9.534;2023-02-07T02:00:12;13.55;;;10.55;;
63320;SDS011;49449;48.800;9.534;2023-02-07T02:02:41;13.55;;;10.05;;
63320;SDS011;49449;48.800;9.534;2023-02-07T02:05:10;13.05;;;9.32;;
63320;SDS011;49449;48.800;9.534;2023-02-07T02:07:39;12.25;;;10.00;;
63320;SDS011;49449;48.800;9.534;2023-02-07T02:10:12;14.15;;;10.43;;
63320;SDS011;49449;48.800;9.534;2023-02-07T02:15:43;13.32;;;10.77;;
63320;SDS011;49449;48.800;9.534;2023-02-07T02:18:31;15.90;;;10.65;;
63320;SDS011;49449;48.800;9.534;2023-02-07T02:27:43;13.27;;;10.00;;
63320;SDS011;49449;48.800;9.534;2023-02-07T02:30:33;15.00;;;10.75;;
63320;SDS011;49449;48.800;9.534;2023-02-07T02:33:20;12.25;;;9.73;;
63320;SDS011;49449;48.800;9.534;2023-02-07T02:36:07;14.13;;;10.38;;
63320;SDS011;49449;48.800;9.534;2023-02-07T02:38:43;14.05;;;10.93;;
63320;SDS011;49449;48.800;9.534;2023-02-07T02:41:19;14.43;;;10.38;;
63320;SDS011;49449;48.800;9.534;2023-02-07T02:46:21;12.20;;;10.40;;
63320;SDS011;49449;48.800;9.534;2023-02-07T02:48:52;15.02;;;9.63;;
63320;SDS011;49449;48.800;9.534;2023-02-07T02:51:22;11.85;;;9.48;;
63320;SDS011;49449;48.800;9.534;2023-02-07T02:53:50;13.40;;;10.40;;
63320;SDS011;49449;48.800;9.534;2023-02-07T03:02:17;14.20;;;10.07;;
63320;SDS011;49449;48.800;9.534;2023-02-07T03:04:58;14.93;;;11.18;;
63320;SDS011;49449;48.800;9.534;2023-02-07T03:07:41;15.00;;;9.93;;
63320;SDS011;49449;48.800;9.534;2023-02-07T03:10:17;13.57;;;11.15;;
63320;SDS011;49449;48.800;9.534;2023-02-07T03:12:54;14.82;;;11.23;;
63320;SDS011;49449;48.800;9.534;2023-02-07T03:15:26;15.15;;;10.43;;
63320;SDS011;49449;48.800;9.534;2023-02-07T03:18:04;15.18;;;11.10;;
63320;SDS011;49449;48.800;9.534;2023-02-07T03:20:39;13.70;;;9.93;;
63320;SDS011;49449;48.800;9.534;2023-02-07T03:23:12;13.07;;;10.07;;
63320;SDS011;49449;48.800;9.534;2023-02-07T03:25:40;15.18;;;10.88;;
63320;SDS011;49449;48.800;9.534;2023-02-07T03:28:10;13.13;;;10.55;;
63320;SDS011;49449;48.800;9.534;2023-02-07T03:30:40;15.05;;;11.27;;
63320;SDS011;49449;48.800;9.534;2023-02-07T03:33:10;14.35;;;10.38;;
63320;SDS011;49449;48.800;9.534;2023-02-07T03:35:43;15.93;;;10.38;;
63320;SDS011;49449;48.800;9.534;2023-02-07T03:38:15;13.30;;;10.32;;
63320;SDS011;49449;48.800;9.534;2023-02-07T03:40:44;13.00;;;10.98;;
63320;SDS011;49449;48.800;9.534;2023-02-07T03:43:14;14.32;;;10.02;;
63320;SDS011;49449;48.800;9.534;2023-02-07T03:45:45;12.32;;;9.48;;
63320;SDS011;49449;48.800;9.534;2023-02-07T03:48:13;12.75;;;10.30;;
63320;SDS011;49449;48.800;9.534;2023-02-07T03:50:42;14.00;;;10.27;;
63320;SDS011;49449;48.800;9.534;2023-02-07T03:53:12;14.18;;;10.23;;
63320;SDS011;49449;48.800;9.534;2023-02-07T03:55:40;14.00;;;10.50;;
63320;SDS011;49449;48.800;9.534;2023-02-07T03:58:08;13.88;;;9.23;;
63320;SDS011;49449;48.800;9.534;2023-02-07T04:00:36;13.40;;;9.32;;
63320;SDS011;49449;48.800;9.534;2023-02-07T04:03:04;13.55;;;11.63;;
63320;SDS011;49449;48.800;9.534;2023-02-07T04:05:32;14.27;;;10.25;;
63320;SDS011;49449;48.800;9.534;2023-02-07T04:08:01;16.35;;;11.55;;
63320;SDS011;49449;48.800;9.534;2023-02-07T04:10:28;12.60;;;10.00;;
63320;SDS011;49449;48.800;9.534;2023-02-07T04:12:56;13.52;;;10.30;;
63320;SDS011;49449;48.800;9.534;2023-02-07T04:15:24;14.25;;;10.18;;
63320;SDS011;49449;48.800;9.534;2023-02-07T04:17:52;13.32;;;9.30;;
63320;SDS011;49449;48.800;9.534;2023-02-07T04:20:20;14.00;;;10.57;;
63320;SDS011;49449;48.800;9.534;2023-02-07T04:22:47;12.98;;;10.35;;
63320;SDS011;49449;48.800;9.534;2023-02-07T04:25:17;12.95;;;9.00;;
63320;SDS011;49449;48.800;9.534;2023-02-07T04:27:44;12.02;;;9.82;;
63320;SDS011;49449;48.800;9.534;2023-02-07T04:30:12;12.32;;;9.30;;
63320;SDS011;49449;48.800;9.534;2023-02-07T04:32:40;14.77;;;11.07;;
63320;SDS011;49449;48.800;9.534;2023-02-07T04:35:08;13.52;;;10.93;;
63320;SDS011;49449;48.800;9.534;2023-02-07T04:37:35;14.38;;;10.52;;
63320;SDS011;49449;48.800;9.534;2023-02-07T04:40:04;11.70;;;9.23;;
63320;SDS011;49449;48.800;9.534;2023-02-07T04:42:33;14.80;;;10.13;;
63320;SDS011;49449;48.800;9.534;2023-02-07T04:45:01;12.00;;;9.50;;
63320;SDS011;49449;48.800;9.534;2023-02-07T04:47:29;13.30;;;9.88;;
63320;SDS011;49449;48.800;9.534;2023-02-07T04:49:57;15.48;;;10.25;;
63320;SDS011;49449;48.800;9.534;2023-02-07T04:52:25;12.93;;;10.05;;
63320;SDS011;49449;48.800;9.534;2023-02-07T04:54:52;11.40;;;9.82;;
63320;SDS011;49449;48.800;9.534;2023-02-07T04:57:20;10.73;;;8.68;;
63320;SDS011;49449;48.800;9.534;2023-02-07T04:59:49;15.10;;;9.23;;
63320;SDS011;49449;48.800;9.534;2023-02-07T05:02:17;12.07;;;8.85;;
63320;SDS011;49449;48.800;9.534;2023-02-07T05:04:45;9.82;;;8.52;;
63320;SDS011;49449;48.800;9.534;2023-02-07T05:07:12;10.82;;;9.13;;
63320;SDS011;49449;48.800;9.534;2023-02-07T05:09:40;11.70;;;8.98;;
63320;SDS011;49449;48.800;9.534;2023-02-07T05:12:08;11.02;;;8.65;;
63320;SDS011;49449;48.800;9.534;2023-02-07T05:14:36;11.00;;;9.13;;
63320;SDS011;49449;48.800;9.534;2023-02-07T05:17:05;12.15;;;8.45;;
63320;SDS011;49449;48.800;9.534;2023-02-07T05:19:33;12.85;;;10.20;;
63320;SDS011;49449;48.800;9.534;2023-02-07T05:22:00;12.70;;;9.23;;
63320;SDS011;49449;48.800;9.534;2023-02-07T05:24:28;13.02;;;9.15;;
63320;SDS011;49449;48.800;9.534;2023-02-07T05:26:56;13.30;;;9.65;;
63320;SDS011;49449;48.800;9.534;2023-02-07T05:29:24;10.40;;;8.02;;
63320;SDS011;49449;48.800;9.534;2023-02-07T05:31:51;11.48;;;8.82;;
63320;SDS011;49449;48.800;9.534;2023-02-07T05:34:38;11.27;;;9.27;;
63320;SDS011;49449;48.800;9.534;2023-02-07T05:37:06;12.10;;;8.45;;
63320;SDS011;49449;48.800;9.534;2023-02-07T05:39:34;14.13;;;9.85;;
63320;SDS011;49449;48.800;9.534;2023-02-07T05:42:02;10.80;;;8.77;;
63320;SDS011;49449;48.800;9.534;2023-02-07T05:44:29;10.95;;;8.48;;
63320;SDS011;49449;48.800;9.534;2023-02-07T05:46:57;11.43;;;8.77;;
63320;SDS011;49449;48.800;9.534;2023-02-07T05:49:25;13.13;;;9.50;;
63320;SDS011;49449;48.800;9.534;2023-02-07T05:51:54;15.25;;;10.30;;
63320;SDS011;49449;48.800;9.534;2023-02-07T05:54:22;10.80;;;8.35;;
63320;SDS011;49449;48.800;9.534;2023-02-07T05:56:50;10.82;;;7.68;;
63320;SDS011;49449;48.800;9.534;2023-02-07T05:59:18;10.52;;;7.90;;
63320;SDS011;49449;48.800;9.534;2023-02-07T06:01:45;12.73;;;9.13;;
63320;SDS011;49449;48.800;9.534;2023-02-07T06:04:13;11.50;;;7.85;;
63320;SDS011;49449;48.800;9.534;2023-02-07T06:06:41;11.05;;;8.05;;
63320;SDS011;49449;48.800;9.534;2023-02-07T06:09:10;11.27;;;7.40;;
63320;SDS011;49449;48.800;9.534;2023-02-07T06:11:38;10.75;;;7.70;;
63320;SDS011;49449;48.800;9.534;2023-02-07T06:14:06;11.50;;;8.50;;
63320;SDS011;49449;48.800;9.534;2023-02-07T06:16:34;10.23;;;7.68;;
63320;SDS011;49449;48.800;9.534;2023-02-07T06:19:02;12.52;;;8.00;;
63320;SDS011;49449;48.800;9.534;2023-02-07T06:21:29;10.75;;;8.40;;
63320;SDS011;49449;48.800;9.534;2023-02-07T06:24:12;12.80;;;8.75;;
63320;SDS011;49449;48.800;9.534;2023-02-07T06:26:40;13.75;;;9.93;;
63320;SDS011;49449;48.800;9.534;2023-02-07T06:29:08;12.13;;;8.52;;
63320;SDS011;49449;48.800;9.534;2023-02-07T06:31:36;12.30;;;9.18;;
63320;SDS011;49449;48.800;9.534;2023-02-07T06:34:03;16.00;;;12.20;;
63320;SDS011;49449;48.800;9.534;2023-02-07T06:36:31;14.30;;;10.40;;
63320;SDS011;49449;48.800;9.534;2023-02-07T06:38:59;16.02;;;10.82;;
63320;SDS011;49449;48.800;9.534;2023-02-07T06:41:28;15.27;;;10.35;;
63320;SDS011;49449;48.800;9.534;2023-02-07T06:43:56;15.30;;;11.02;;
63320;SDS011;49449;48.800;9.534;2023-02-07T06:46:24;12.75;;;9.77;;
63320;SDS011;49449;48.800;9.534;2023-02-07T06:48:51;13.85;;;10.50;;
63320;SDS011;49449;48.800;9.534;2023-02-07T06:51:19;14.73;;;10.95;;
63320;SDS011;49449;48.800;9.534;2023-02-07T06:53:47;16.75;;;11.43;;
63320;SDS011;49449;48.800;9.534;2023-02-07T06:56:15;18.63;;;12.73;;
63320;SDS011;49449;48.800;9.534;2023-02-07T06:58:45;14.98;;;10.18;;
63320;SDS011;49449;48.800;9.534;2023-02-07T07:01:13;17.40;;;10.50;;
63320;SDS011;49449;48.800;9.534;2023-02-07T07:03:45;16.88;;;12.10;;
63320;SDS011;49449;48.800;9.534;2023-02-07T07:06:13;13.50;;;10.32;;
63320;SDS011;49449;48.800;9.534;2023-02-07T07:08:41;12.82;;;9.27;;
63320;SDS011;49449;48.800;9.534;2023-02-07T07:11:08;12.38;;;9.55;;
63320;SDS011;49449;48.800;9.534;2023-02-07T07:13:36;14.52;;;9.65;;
63320;SDS011;49449;48.800;9.534;2023-02-07T07:16:06;11.32;;;9.00;;
63320;SDS011;49449;48.800;9.534;2023-02-07T07:18:33;12.40;;;8.35;;
63320;SDS011;49449;48.800;9.534;2023-02-07T07:21:03;12.90;;;9.75;;
63320;SDS011;49449;48.800;9.534;2023-02-07T07:23:31;14.55;;;12.52;;
63320;SDS011;49449;48.800;9.534;2023-02-07T07:25:59;14.60;;;9.20;;
63320;SDS011;49449;48.800;9.534;2023-02-07T07:28:27;11.45;;;8.70;;
63320;SDS011;49449;48.800;9.534;2023-02-07T07:31:00;11.85;;;8.70;;
63320;SDS011;49449;48.800;9.534;2023-02-07T07:33:31;12.50;;;8.43;;
63320;SDS011;49449;48.800;9.534;2023-02-07T07:36:00;19.20;;;12.93;;
63320;SDS011;49449;48.800;9.534;2023-02-07T07:38:28;14.07;;;10.32;;
63320;SDS011;49449;48.800;9.534;2023-02-07T07:40:56;20.67;;;12.25;;
63320;SDS011;49449;48.800;9.534;2023-02-07T07:43:24;16.15;;;11.35;;
63320;SDS011;49449;48.800;9.534;2023-02-07T07:45:53;11.95;;;9.38;;
63320;SDS011;49449;48.800;9.534;2023-02-07T07:48:22;13.10;;;10.07;;
63320;SDS011;49449;48.800;9.534;2023-02-07T07:50:52;12.48;;;9.20;;
63320;SDS011;49449;48.800;9.534;2023-02-07T07:53:20;11.35;;;8.45;;
63320;SDS011;49449;48.800;9.534;2023-02-07T07:55:48;11.15;;;8.23;;
63320;SDS011;49449;48.800;9.534;2023-02-07T07:58:17;15.15;;;9.93;;
63320;SDS011;49449;48.800;9.534;2023-02-07T08:00:45;11.23;;;8.35;;
63320;SDS011;49449;48.800;9.534;2023-02-07T08:03:13;11.13;;;8.55;;
63320;SDS011;49449;48.800;9.534;2023-02-07T08:05:42;11.93;;;8.93;;
63320;SDS011;49449;48.800;9.534;2023-02-07T08:08:11;12.60;;;9.23;;
63320;SDS011;49449;48.800;9.534;2023-02-07T08:10:40;10.98;;;8.45;;
63320;SDS011;49449;48.800;9.534;2023-02-07T08:13:08;12.25;;;8.35;;
63320;SDS011;49449;48.800;9.534;2023-02-07T08:15:36;11.45;;;9.18;;
63320;SDS011;49449;48.800;9.534;2023-02-07T08:18:05;15.25;;;9.07;;
63320;SDS011;49449;48.800;9.534;2023-02-07T08:20:33;11.93;;;9.13;;
63320;SDS011;49449;48.800;9.534;2023-02-07T08:23:00;11.85;;;8.68;;
63320;SDS011;49449;48.800;9.534;2023-02-07T08:25:29;14.13;;;8.73;;
63320;SDS011;49449;48.800;9.534;2023-02-07T08:27:57;9.82;;;7.20;;
63320;SDS011;49449;48.800;9.534;2023-02-07T08:30:26;10.60;;;7.82;;
63320;SDS011;49449;48.800;9.534;2023-02-07T08:32:54;10.18;;;7.38;;
63320;SDS011;49449;48.800;9.534;2023-02-07T08:35:22;9.38;;;7.22;;
63320;SDS011;49449;48.800;9.534;2023-02-07T08:37:51;9.75;;;8.10;;
63320;SDS011;49449;48.800;9.534;2023-02-07T08:40:21;8.55;;;6.70;;
63320;SDS011;49449;48.800;9.534;2023-02-07T08:42:50;9.23;;;7.38;;
63320;SDS011;49449;48.800;9.534;2023-02-07T08:45:17;10.93;;;7.47;;
63320;SDS011;49449;48.800;9.534;2023-02-07T08:47:45;7.78;;;6.35;;
63320;SDS011;49449;48.800;9.534;2023-02-07T08:50:13;9.57;;;7.03;;
63320;SDS011;49449;48.800;9.534;2023-02-07T08:52:42;8.55;;;7.13;;
63320;SDS011;49449;48.800;9.534;2023-02-07T08:55:10;8.93;;;7.25;;
63320;SDS011;49449;48.800;9.534;2023-02-07T08:57:38;9.52;;;7.55;;
63320;SDS011;49449;48.800;9.534;2023-02-07T09:00:08;9.85;;;8.55;;
63320;SDS011;49449;48.800;9.534;2023-02-07T09:02:36;15.75;;;12.77;;
63320;SDS011;49449;48.800;9.534;2023-02-07T09:05:05;12.20;;;8.27;;
63320;SDS011;49449;48.800;9.534;2023-02-07T09:07:34;10.75;;;7.57;;
63320;SDS011;49449;48.800;9.534;2023-02-07T09:10:02;10.68;;;8.95;;
63320;SDS011;49449;48.800;9.534;2023-02-07T09:12:31;9.73;;;8.55;;
63320;SDS011;49449;48.800;9.534;2023-02-07T09:14:59;10.10;;;7.88;;
63320;SDS011;49449;48.800;9.534;2023-02-07T09:17:29;9.43;;;7.35;;
63320;SDS011;49449;48.800;9.534;2023-02-07T09:19:56;11.73;;;8.20;;
63320;SDS011;49449;48.800;9.534;2023-02-07T09:22:24;8.57;;;7.50;;
63320;SDS011;49449;48.800;9.534;2023-02-07T09:24:52;12.20;;;7.30;;
63320;SDS011;49449;48.800;9.534;2023-02-07T09:27:20;9.32;;;7.75;;
63320;SDS011;49449;48.800;9.534;2023-02-07T09:29:47;9.35;;;7.15;;
63320;SDS011;49449;48.800;9.534;2023-02-07T09:32:15;9.85;;;7.65;;
63320;SDS011;49449;48.800;9.534;2023-02-07T09:34:44;9.70;;;8.25;;
63320;SDS011;49449;48.800;9.534;2023-02-07T09:37:12;8.77;;;7.75;;
63320;SDS011;49449;48.800;9.534;2023-02-07T09:39:40;9.45;;;8.05;;
63320;SDS011;49449;48.800;9.534;2023-02-07T09:42:12;10.35;;;8.88;;
63320;SDS011;49449;48.800;9.534;2023-02-07T09:44:52;10.13;;;8.18;;
63320;SDS011;49449;48.800;9.534;2023-02-07T09:47:25;10.43;;;8.75;;
63320;SDS011;49449;48.800;9.534;2023-02-07T09:49:56;10.25;;;8.65;;
63320;SDS011;49449;48.800;9.534;2023-02-07T09:52:28;12.50;;;8.88;;
63320;SDS011;49449;48.800;9.534;2023-02-07T09:54:59;10.70;;;9.60;;
63320;SDS011;49449;48.800;9.534;2023-02-07T09:57:31;10.98;;;8.98;;
63320;SDS011;49449;48.800;9.534;2023-02-07T10:00:04;11.30;;;10.20;;
63320;SDS011;49449;48.800;9.534;2023-02-07T10:02:37;11.45;;;9.18;;
63320;SDS011;49449;48.800;9.534;2023-02-07T10:05:12;10.00;;;8.77;;
63320;SDS011;49449;48.800;9.534;2023-02-07T10:07:43;13.68;;;9.35;;
63320;SDS011;49449;48.800;9.534;2023-02-07T10:10:15;11.48;;;8.35;;
63320;SDS011;49449;48.800;9.534;2023-02-07T10:12:47;11.10;;;8.65;;
63320;SDS011;49449;48.800;9.534;2023-02-07T10:15:36;11.52;;;9.65;;
63320;SDS011;49449;48.800;9.534;2023-02-07T10:18:23;10.77;;;8.68;;
63320;SDS011;49449;48.800;9.534;2023-02-07T10:21:02;9.25;;;8.10;;
63320;SDS011;49449;48.800;9.534;2023-02-07T10:23:38;9.20;;;7.25;;
63320;SDS011;49449;48.800;9.534;2023-02-07T10:26:20;11.73;;;8.88;;
63320;SDS011;49449;48.800;9.534;2023-02-07T10:28:58;11.13;;;9.93;;
63320;SDS011;49449;48.800;9.534;2023-02-07T10:31:36;10.00;;;8.07;;
63320;SDS011;49449;48.800;9.534;2023-02-07T10:34:09;10.43;;;9.02;;
63320;SDS011;49449;48.800;9.534;2023-02-07T10:36:43;11.23;;;9.52;;
63320;SDS011;49449;48.800;9.534;2023-02-07T10:39:15;10.70;;;8.57;;
63320;SDS011;49449;48.800;9.534;2023-02-07T10:41:49;10.30;;;8.85;;
63320;SDS011;49449;48.800;9.534;2023-02-07T10:44:21;11.18;;;8.88;;
63320;SDS011;49449;48.800;9.534;2023-02-07T10:46:49;10.30;;;9.00;;
63320;SDS011;49449;48.800;9.534;2023-02-07T10:49:24;10.00;;;8.50;;
63320;SDS011;49449;48.800;9.534;2023-02-07T10:51:56;12.10;;;8.93;;
63320;SDS011;49449;48.800;9.534;2023-02-07T10:54:25;11.18;;;8.15;;
63320;SDS011;49449;48.800;9.534;2023-02-07T10:56:53;12.07;;;9.27;;
63320;SDS011;49449;48.800;9.534;2023-02-07T10:59:31;9.70;;;8.55;;
63320;SDS011;49449;48.800;9.534;2023-02-07T11:02:21;10.65;;;8.13;;
63320;SDS011;49449;48.800;9.534;2023-02-07T11:05:26;9.75;;;8.07;;
63320;SDS011;49449;48.800;9.534;2023-02-07T11:08:00;9.25;;;7.95;;
63320;SDS011;49449;48.800;9.534;2023-02-07T11:10:32;9.95;;;8.30;;
63320;SDS011;49449;48.800;9.534;2023-02-07T11:15:45;12.52;;;8.48;;
63320;SDS011;49449;48.800;9.534;2023-02-07T11:18:26;11.93;;;8.77;;
63320;SDS011;49449;48.800;9.534;2023-02-07T11:21:06;10.43;;;8.63;;
63320;SDS011;49449;48.800;9.534;2023-02-07T11:23:48;9.07;;;7.32;;
63320;SDS011;49449;48.800;9.534;2023-02-07T11:26:17;9.38;;;7.85;;
63320;SDS011;49449;48.800;9.534;2023-02-07T11:28:45;9.63;;;7.85;;
63320;SDS011;49449;48.800;9.534;2023-02-07T11:31:17;9.95;;;7.20;;
63320;SDS011;49449;48.800;9.534;2023-02-07T11:33:49;9.27;;;7.07;;
63320;SDS011;49449;48.800;9.534;2023-02-07T11:36:21;60.30;;;21.67;;
63320;SDS011;49449;48.800;9.534;2023-02-07T11:38:56;34.90;;;15.02;;
63320;SDS011;49449;48.800;9.534;2023-02-07T11:41:28;12.30;;;8.52;;
63320;SDS011;49449;48.800;9.534;2023-02-07T11:43:58;10.73;;;7.43;;
63320;SDS011;49449;48.800;9.534;2023-02-07T11:46:31;9.07;;;7.57;;
63320;SDS011;49449;48.800;9.534;2023-02-07T11:49:05;7.70;;;6.63;;
63320;SDS011;49449;48.800;9.534;2023-02-07T11:51:36;8.73;;;6.28;;
63320;SDS011;49449;48.800;9.534;2023-02-07T11:54:05;8.50;;;7.07;;
63320;SDS011;49449;48.800;9.534;2023-02-07T11:56:35;7.75;;;6.05;;
63320;SDS011;49449;48.800;9.534;2023-02-07T11:59:07;8.75;;;6.80;;
63320;SDS011;49449;48.800;9.534;2023-02-07T12:01:42;9.88;;;7.28;;
63320;SDS011;49449;48.800;9.534;2023-02-07T12:04:18;8.45;;;6.28;;
63320;SDS011;49449;48.800;9.534;2023-02-07T12:06:51;8.40;;;6.00;;
63320;SDS011;49449;48.800;9.534;2023-02-07T12:09:28;7.22;;;6.30;;
63320;SDS011;49449;48.800;9.534;2023-02-07T12:12:00;9.18;;;6.22;;
63320;SDS011;49449;48.800;9.534;2023-02-07T12:14:32;7.10;;;6.18;;
63320;SDS011;49449;48.800;9.534;2023-02-07T12:17:06;7.85;;;6.25;;
63320;SDS011;49449;48.800;9.534;2023-02-07T12:19:42;8.18;;;6.57;;
63320;SDS011;49449;48.800;9.534;2023-02-07T12:22:18;9.07;;;7.10;;
63320;SDS011;49449;48.800;9.534;2023-02-07T12:24:52;7.72;;;6.93;;
63320;SDS011;49449;48.800;9.534;2023-02-07T12:27:24;7.82;;;6.47;;
63320;SDS011;49449;48.800;9.534;2023-02-07T12:29:57;8.73;;;6.20;;
63320;SDS011;49449;48.800;9.534;2023-02-07T12:32:32;8.25;;;6.22;;
63320;SDS011;49449;48.800;9.534;2023-02-07T12:35:10;7.57;;;6.38;;
63320;SDS011;49449;48.800;9.534;2023-02-07T12:37:45;7.82;;;5.93;;
63320;SDS011;49449;48.800;9.534;2023-02-07T12:40:23;8.40;;;6.22;;
63320;SDS011;49449;48.800;9.534;2023-02-07T12:42:58;7.40;;;6.28;;
63320;SDS011;49449;48.800;9.534;2023-02-07T12:45:36;8.07;;;6.05;;
63320;SDS011;49449;48.800;9.534;2023-02-07T12:48:15;7.65;;;5.97;;
63320;SDS011;49449;48.800;9.534;2023-02-07T12:50:54;6.95;;;5.68;;
63320;SDS011;49449;48.800;9.534;2023-02-07T12:53:33;7.88;;;6.22;;
63320;SDS011;49449;48.800;9.534;2023-02-07T12:56:13;8.30;;;6.00;;
63320;SDS011;49449;48.800;9.534;2023-02-07T12:58:55;8.23;;;5.88;;
63320;SDS011;49449;48.800;9.534;2023-02-07T13:01:34;6.97;;;5.80;;
63320;SDS011;49449;48.800;9.534;2023-02-07T13:07:15;6.75;;;5.68;;
63320;SDS011;49449;48.800;9.534;2023-02-07T13:09:59;7.93;;;5.72;;
63320;SDS011;49449;48.800;9.534;2023-02-07T13:12:38;8.88;;;6.82;;
63320;SDS011;49449;48.800;9.534;2023-02-07T13:15:16;8.40;;;6.35;;
63320;SDS011;49449;48.800;9.534;2023-02-07T13:17:53;8.65;;;6.18;;
63320;SDS011;49449;48.800;9.534;2023-02-07T13:20:29;7.60;;;6.20;;
63320;SDS011;49449;48.800;9.534;2023-02-07T13:23:12;8.02;;;6.40;;
63320;SDS011;49449;48.800;9.534;2023-02-07T13:25:45;7.43;;;6.10;;
63320;SDS011;49449;48.800;9.534;2023-02-07T13:28:19;8.60;;;6.00;;
63320;SDS011;49449;48.800;9.534;2023-02-07T13:30:52;6.32;;;5.35;;
63320;SDS011;49449;48.800;9.534;2023-02-07T13:33:25;7.72;;;6.35;;
63320;SDS011;49449;48.800;9.534;2023-02-07T13:35:57;6.32;;;5.72;;
63320;SDS011;49449;48.800;9.534;2023-02-07T13:38:35;7.07;;;5.78;;
63320;SDS011;49449;48.800;9.534;2023-02-07T13:41:14;7.70;;;6.68;;
63320;SDS011;49449;48.800;9.534;2023-02-07T13:43:54;7.10;;;6.07;;
63320;SDS011;49449;48.800;9.534;2023-02-07T13:46:42;6.93;;;5.80;;
63320;SDS011;49449;48.800;9.534;2023-02-07T13:49:23;7.40;;;6.30;;
63320;SDS011;49449;48.800;9.534;2023-02-07T13:52:00;7.07;;;5.30;;
63320;SDS011;49449;48.800;9.534;2023-02-07T13:54:33;7.32;;;6.00;;
63320;SDS011;49449;48.800;9.534;2023-02-07T13:57:11;7.20;;;6.35;;
63320;SDS011;49449;48.800;9.534;2023-02-07T14:00:14;5.93;;;5.13;;
63320;SDS011;49449;48.800;9.534;2023-02-07T14:02:45;5.50;;;4.55;;
63320;SDS011;49449;48.800;9.534;2023-02-07T14:07:53;6.57;;;4.85;;
63320;SDS011;49449;48.800;9.534;2023-02-07T14:10:43;5.85;;;5.07;;
63320;SDS011;49449;48.800;9.534;2023-02-07T14:13:19;6.88;;;5.43;;
63320;SDS011;49449;48.800;9.534;2023-02-07T14:15:53;7.20;;;5.43;;
63320;SDS011;49449;48.800;9.534;2023-02-07T14:21:36;4.65;;;4.05;;
63320;SDS011;49449;48.800;9.534;2023-02-07T14:24:16;5.35;;;4.38;;
63320;SDS011;49449;48.800;9.534;2023-02-07T14:30:05;6.47;;;5.40;;
63320;SDS011;49449;48.800;9.534;2023-02-07T14:38:32;6.03;;;4.47;;
63320;SDS011;49449;48.800;9.534;2023-02-07T14:41:03;6.03;;;4.43;;
63320;SDS011;49449;48.800;9.534;2023-02-07T14:43:41;5.68;;;4.03;;
63320;SDS011;49449;48.800;9.534;2023-02-07T14:46:24;6.20;;;4.38;;
63320;SDS011;49449;48.800;9.534;2023-02-07T14:48:59;6.40;;;4.82;;
63320;SDS011;49449;48.800;9.534;2023-02-07T14:51:31;5.40;;;3.50;;
63320;SDS011;49449;48.800;9.534;2023-02-07T14:54:06;5.10;;;4.00;;
63320;SDS011;49449;48.800;9.534;2023-02-07T14:56:43;6.28;;;4.68;;
63320;SDS011;49449;48.800;9.534;2023-02-07T14:59:17;6.25;;;5.00;;
63320;SDS011;49449;48.800;9.534;2023-02-07T15:01:53;6.03;;;4.75;;
63320;SDS011;49449;48.800;9.534;2023-02-07T15:04:22;6.72;;;5.90;;
63320;SDS011;49449;48.800;9.534;2023-02-07T15:06:49;6.47;;;5.03;;
63320;SDS011;49449;48.800;9.534;2023-02-07T15:09:23;7.88;;;6.00;;
63320;SDS011;49449;48.800;9.534;2023-02-07T15:11:53;8.73;;;5.82;;
63320;SDS011;49449;48.800;9.534;2023-02-07T15:14:35;8.68;;;6.05;;
63320;SDS011;49449;48.800;9.534;2023-02-07T15:17:04;8.18;;;5.90;;
63320;SDS011;49449;48.800;9.534;2023-02-07T15:19:34;7.53;;;5.75;;
63320;SDS011;49449;48.800;9.534;2023-02-07T15:22:05;8.02;;;6.07;;
63320;SDS011;49449;48.800;9.534;2023-02-07T15:24:49;7.25;;;5.20;;
63320;SDS011;49449;48.800;9.534;2023-02-07T15:27:18;8.07;;;5.47;;
63320;SDS011;49449;48.800;9.534;2023-02-07T15:29:52;8.32;;;5.78;;
63320;SDS011;49449;48.800;9.534;2023-02-07T15:32:21;8.43;;;6.82;;
63320;SDS011;49449;48.800;9.534;2023-02-07T15:34:51;7.50;;;5.82;;
63320;SDS011;49449;48.800;9.534;2023-02-07T15:37:22;6.90;;;5.55;;
63320;SDS011;49449;48.800;9.534;2023-02-07T15:39:51;8.85;;;6.55;;
63320;SDS011;49449;48.800;9.534;2023-02-07T15:42:20;9.55;;;7.10;;